Time;durP1;ratioP1;P1;durP2;ratioP2;P2;SDS_P1;SDS_P2;PMS_P1;PMS_P2;Temp;Humidity;BMP_temperature;BMP_pressure;BME280_temperature;BME280_humidity;BME280_pressure;Samples;Min_cycle;Max_cycle;Signal;HPM_P1;HPM_P2
2023/10/19 00:02:08;;;;;;;0.00;0.00;;;;;;;;;;4974400;28;20050;-68
2023/10/19 00:04:35;;;;;;;0.00;0.00;;;;;;;;;;4977872;28;20039;-68
2023/10/19 00:07:04;;;;;;;0.00;0.00;;;;;;;;;;4977649;28;20750;-68
2023/10/19 00:09:36;;;;;;;0.00;0.00;;;;;;;;;;4985945;28;20077;-68
2023/10/19 00:12:03;;;;;;;0.00;0.00;;;;;;;;;;4990340;28;20494;-68
2023/10/19 00:14:29;;;;;;;0.00;0.00;;;;;;;;;;4976907;28;20616;-68
2023/10/19 00:17:00;;;;;;;0.00;0.00;;;;;;;;;;4977954;28;20069;-71
2023/10/19 00:19:27;;;;;;;0.00;0.00;;;;;;;;;;4978473;28;20417;-71
2023/10/19 00:22:02;;;;;;;0.00;0.00;;;;;;;;;;4981482;28;20461;-71
2023/10/19 00:24:31;;;;;;;0.00;0.00;;;;;;;;;;4976682;28;20034;-72
2023/10/19 00:27:05;;;;;;;0.00;0.00;;;;;;;;;;4984856;28;20534;-71
2023/10/19 00:29:31;;;;;;;0.00;0.00;;;;;;;;;;4982063;28;20038;-71
2023/10/19 00:32:02;;;;;;;0.00;0.00;;;;;;;;;;4993183;28;20042;-71
2023/10/19 00:34:31;;;;;;;0.00;0.00;;;;;;;;;;4980872;28;20820;-70
2023/10/19 00:36:59;;;;;;;0.00;0.00;;;;;;;;;;4984771;28;20088;-71
2023/10/19 00:39:27;;;;;;;0.00;0.00;;;;;;;;;;4983526;28;20051;-70
2023/10/19 00:41:57;;;;;;;0.00;0.00;;;;;;;;;;4980314;28;20054;-70
2023/10/19 00:44:35;;;;;;;0.00;0.00;;;;;;;;;;4981992;28;20108;-70
2023/10/19 00:47:03;;;;;;;0.00;0.00;;;;;;;;;;4981480;28;20045;-70
2023/10/19 00:49:31;;;;;;;0.00;0.00;;;;;;;;;;4989220;28;20046;-70
2023/10/19 00:52:11;;;;;;;0.00;0.00;;;;;;;;;;4981944;28;20043;-71
2023/10/19 00:57:20;;;;;;;0.00;0.00;;;;;;;;;;4981282;28;20045;-72
2023/10/19 01:02:17;;;;;;;0.00;0.00;;;;;;;;;;4980477;28;20840;-71
2023/10/19 01:04:50;;;;;;;0.00;0.00;;;;;;;;;;4981769;28;20034;-72
2023/10/19 01:07:38;;;;;;;0.00;0.00;;;;;;;;;;4979683;28;20089;-71
2023/10/19 01:10:20;;;;;;;0.00;0.00;;;;;;;;;;4981330;28;20052;-72
2023/10/19 01:12:46;;;;;;;0.00;0.00;;;;;;;;;;4979074;28;20049;-71
2023/10/19 01:15:17;;;;;;;0.00;0.00;;;;;;;;;;4980257;28;20844;-71
2023/10/19 01:17:44;;;;;;;0.00;0.00;;;;;;;;;;4983366;28;20034;-72
2023/10/19 01:20:18;;;;;;;0.00;0.00;;;;;;;;;;4980294;28;20049;-72
2023/10/19 01:26:07;;;;;;;0.00;0.00;;;;;;;;;;4994893;28;20092;-73
2023/10/19 01:31:07;;;;;;;0.00;0.00;;;;;;;;;;4978199;28;20077;-69
2023/10/19 01:33:36;;;;;;;0.00;0.00;;;;;;;;;;4983862;28;20049;-69
2023/10/19 01:36:11;;;;;;;0.00;0.00;;;;;;;;;;4983814;28;20042;-68
2023/10/19 01:38:38;;;;;;;0.00;0.00;;;;;;;;;;4987346;28;20096;-68
2023/10/19 01:41:13;;;;;;;0.00;0.00;;;;;;;;;;4982532;28;20035;-68
2023/10/19 01:43:40;;;;;;;0.00;0.00;;;;;;;;;;4978884;28;20499;-68
2023/10/19 01:46:12;;;;;;;0.00;0.00;;;;;;;;;;4981297;28;20022;-68
2023/10/19 01:48:40;;;;;;;0.00;0.00;;;;;;;;;;4989222;28;20034;-69
2023/10/19 01:51:10;;;;;;;0.00;0.00;;;;;;;;;;4979584;28;20473;-69
2023/10/19 01:53:36;;;;;;;0.00;0.00;;;;;;;;;;4979271;28;20062;-69
2023/10/19 01:56:09;;;;;;;0.00;0.00;;;;;;;;;;4979194;28;20039;-68
2023/10/19 01:58:36;;;;;;;0.00;0.00;;;;;;;;;;4985067;28;20070;-68
2023/10/19 02:01:07;;;;;;;0.00;0.00;;;;;;;;;;4980090;28;20034;-69
2023/10/19 02:03:35;;;;;;;0.00;0.00;;;;;;;;;;4977793;28;20053;-68
2023/10/19 02:06:10;;;;;;;0.00;0.00;;;;;;;;;;4980879;28;20034;-69
2023/10/19 02:08:38;;;;;;;0.00;0.00;;;;;;;;;;4985935;28;20077;-68
2023/10/19 02:11:09;;;;;;;0.00;0.00;;;;;;;;;;4983317;28;20553;-69
2023/10/19 02:13:36;;;;;;;0.00;0.00;;;;;;;;;;4984655;28;20356;-68
2023/10/19 02:16:02;;;;;;;0.00;0.00;;;;;;;;;;4982545;28;20522;-69
2023/10/19 02:18:27;;;;;;;0.00;0.00;;;;;;;;;;4983052;28;20033;-68
2023/10/19 02:20:56;;;;;;;0.00;0.00;;;;;;;;;;4991014;28;20129;-69
2023/10/19 02:23:22;;;;;;;0.00;0.00;;;;;;;;;;4980494;28;20045;-69
2023/10/19 02:25:49;;;;;;;0.00;0.00;;;;;;;;;;4976021;28;20043;-68
2023/10/19 02:28:15;;;;;;;0.00;0.00;;;;;;;;;;4979765;28;20034;-69
2023/10/19 02:30:42;;;;;;;0.00;0.00;;;;;;;;;;4979964;28;20054;-69
2023/10/19 02:33:08;;;;;;;0.00;0.00;;;;;;;;;;4978594;28;20035;-69
2023/10/19 02:35:35;;;;;;;0.00;0.00;;;;;;;;;;4978704;28;20042;-68
2023/10/19 02:38:04;;;;;;;0.00;0.00;;;;;;;;;;4980719;28;20034;-69
2023/10/19 02:40:31;;;;;;;0.00;0.00;;;;;;;;;;4989149;28;20031;-68
2023/10/19 02:43:02;;;;;;;0.00;0.00;;;;;;;;;;4977894;28;20186;-69
2023/10/19 02:45:30;;;;;;;0.00;0.00;;;;;;;;;;4996440;28;20053;-68
2023/10/19 02:47:58;;;;;;;0.00;0.00;;;;;;;;;;4995563;28;20524;-72
2023/10/19 02:50:26;;;;;;;0.00;0.00;;;;;;;;;;4999399;28;20113;-72
2023/10/19 02:52:53;;;;;;;0.00;0.00;;;;;;;;;;4999001;28;20041;-73
2023/10/19 02:55:23;;;;;;;0.00;0.00;;;;;;;;;;4993601;28;20030;-72
2023/10/19 02:57:50;;;;;;;0.00;0.00;;;;;;;;;;4999430;28;20046;-69
2023/10/19 03:00:20;;;;;;;0.00;0.00;;;;;;;;;;4997590;28;20037;-69
2023/10/19 03:02:46;;;;;;;0.00;0.00;;;;;;;;;;4995092;28;20565;-69
2023/10/19 03:05:16;;;;;;;0.00;0.00;;;;;;;;;;4997535;28;20092;-68
2023/10/19 03:07:46;;;;;;;0.00;0.00;;;;;;;;;;4997107;28;20045;-68
2023/10/19 03:10:23;;;;;;;0.00;0.00;;;;;;;;;;4997664;28;20119;-68
2023/10/19 03:12:50;;;;;;;0.00;0.00;;;;;;;;;;4998293;28;20048;-69
2023/10/19 03:15:17;;;;;;;0.00;0.00;;;;;;;;;;4998425;28;20034;-69
2023/10/19 03:17:43;;;;;;;0.00;0.00;;;;;;;;;;4995845;28;20045;-68
2023/10/19 03:20:10;;;;;;;0.00;0.00;;;;;;;;;;4998285;28;20121;-69
2023/10/19 03:22:38;;;;;;;0.00;0.00;;;;;;;;;;4997280;28;20127;-69
2023/10/19 03:27:49;;;;;;;0.00;0.00;;;;;;;;;;5006188;28;20045;-69
2023/10/19 03:30:19;;;;;;;0.00;0.00;;;;;;;;;;5003241;28;20042;-68
2023/10/19 03:32:45;;;;;;;0.00;0.00;;;;;;;;;;5005568;28;20060;-69
2023/10/19 03:35:15;;;;;;;0.00;0.00;;;;;;;;;;5001543;28;20532;-69
2023/10/19 03:37:41;;;;;;;0.00;0.00;;;;;;;;;;4996402;28;20480;-69
2023/10/19 03:40:11;;;;;;;0.00;0.00;;;;;;;;;;4990274;28;20030;-69
2023/10/19 03:42:46;;;;;;;0.00;0.00;;;;;;;;;;4976900;28;20034;-69
2023/10/19 03:45:15;;;;;;;0.00;0.00;;;;;;;;;;4981113;28;20054;-69
2023/10/19 03:47:44;;;;;;;0.00;0.00;;;;;;;;;;4978114;28;20030;-69
2023/10/19 03:50:14;;;;;;;0.00;0.00;;;;;;;;;;4974911;28;20034;-69
2023/10/19 03:52:41;;;;;;;0.00;0.00;;;;;;;;;;4974689;28;20066;-69
2023/10/19 03:55:22;;;;;;;0.00;0.00;;;;;;;;;;4975336;28;20487;-68
2023/10/19 03:57:54;;;;;;;0.00;0.00;;;;;;;;;;4979194;28;20057;-69
2023/10/19 04:00:24;;;;;;;0.00;0.00;;;;;;;;;;4977768;28;20092;-66
2023/10/19 04:02:53;;;;;;;0.00;0.00;;;;;;;;;;4977764;28;20100;-66
2023/10/19 04:05:22;;;;;;;0.00;0.00;;;;;;;;;;4978472;28;20152;-66
2023/10/19 04:07:54;;;;;;;0.00;0.00;;;;;;;;;;4980857;28;20212;-66
2023/10/19 04:10:30;;;;;;;0.00;0.00;;;;;;;;;;4980899;28;20483;-66
2023/10/19 04:12:59;;;;;;;0.00;0.00;;;;;;;;;;4982619;28;20037;-67
2023/10/19 04:15:26;;;;;;;0.00;0.00;;;;;;;;;;4983477;28;21159;-67
2023/10/19 04:17:54;;;;;;;0.00;0.00;;;;;;;;;;4981722;28;20527;-66
2023/10/19 04:20:35;;;;;;;0.00;0.00;;;;;;;;;;4982224;28;20149;-66
2023/10/19 04:23:10;;;;;;;0.00;0.00;;;;;;;;;;4980796;28;20039;-66
2023/10/19 04:25:37;;;;;;;0.00;0.00;;;;;;;;;;4979281;28;20058;-68
2023/10/19 04:28:03;;;;;;;0.00;0.00;;;;;;;;;;4980339;28;20038;-69
2023/10/19 04:30:29;;;;;;;0.00;0.00;;;;;;;;;;4979529;28;20476;-69
2023/10/19 04:32:57;;;;;;;0.00;0.00;;;;;;;;;;4987999;28;20277;-69
2023/10/19 04:35:23;;;;;;;0.00;0.00;;;;;;;;;;4988764;28;22863;-69
2023/10/19 04:37:50;;;;;;;0.00;0.00;;;;;;;;;;4983036;28;20046;-69
2023/10/19 04:40:16;;;;;;;0.00;0.00;;;;;;;;;;4981827;28;20129;-68
2023/10/19 04:42:42;;;;;;;0.00;0.00;;;;;;;;;;4984879;28;20046;-69
2023/10/19 04:45:09;;;;;;;0.00;0.00;;;;;;;;;;4979611;28;20049;-69
2023/10/19 04:47:35;;;;;;;0.00;0.00;;;;;;;;;;4978236;28;20433;-69
2023/10/19 04:50:05;;;;;;;0.00;0.00;;;;;;;;;;4979280;28;20065;-69
2023/10/19 04:52:31;;;;;;;0.00;0.00;;;;;;;;;;4980006;28;20038;-68
2023/10/19 04:54:57;;;;;;;0.00;0.00;;;;;;;;;;4981689;28;20101;-69
2023/10/19 04:57:23;;;;;;;0.00;0.00;;;;;;;;;;4982439;28;20042;-69
2023/10/19 04:59:50;;;;;;;0.00;0.00;;;;;;;;;;4984194;28;20042;-69
2023/10/19 05:02:16;;;;;;;0.00;0.00;;;;;;;;;;4980439;28;20038;-68
2023/10/19 05:04:42;;;;;;;0.00;0.00;;;;;;;;;;4979862;28;20097;-69
2023/10/19 05:07:12;;;;;;;0.00;0.00;;;;;;;;;;4968606;28;20129;-69
2023/10/19 05:09:39;;;;;;;0.00;0.00;;;;;;;;;;4979746;28;20038;-69
2023/10/19 05:12:09;;;;;;;0.00;0.00;;;;;;;;;;4977345;28;20031;-69
2023/10/19 05:14:35;;;;;;;0.00;0.00;;;;;;;;;;4981823;28;20125;-69
2023/10/19 05:17:04;;;;;;;0.00;0.00;;;;;;;;;;4978880;28;20101;-72
2023/10/19 05:19:30;;;;;;;0.00;0.00;;;;;;;;;;4986978;28;20046;-72
2023/10/19 05:21:56;;;;;;;0.00;0.00;;;;;;;;;;4978955;28;20038;-72
2023/10/19 05:24:22;;;;;;;0.00;0.00;;;;;;;;;;4977962;28;20497;-72
2023/10/19 05:26:49;;;;;;;0.00;0.00;;;;;;;;;;4979453;28;20038;-72
2023/10/19 05:29:15;;;;;;;0.00;0.00;;;;;;;;;;4974267;28;20149;-73
2023/10/19 05:31:41;;;;;;;0.00;0.00;;;;;;;;;;4979288;28;20042;-71
2023/10/19 05:34:08;;;;;;;0.00;0.00;;;;;;;;;;4974354;28;20592;-71
2023/10/19 05:36:34;;;;;;;0.00;0.00;;;;;;;;;;4979009;28;20027;-72
2023/10/19 05:39:00;;;;;;;0.00;0.00;;;;;;;;;;4977887;28;20133;-72
2023/10/19 05:41:26;;;;;;;0.00;0.00;;;;;;;;;;4979626;28;20038;-71
2023/10/19 05:43:53;;;;;;;0.00;0.00;;;;;;;;;;4980077;28;20973;-71
2023/10/19 05:46:21;;;;;;;0.00;0.00;;;;;;;;;;4977195;28;20042;-73
2023/10/19 05:48:49;;;;;;;0.00;0.00;;;;;;;;;;4976474;28;20097;-73
2023/10/19 05:51:15;;;;;;;0.00;0.00;;;;;;;;;;4973776;28;20057;-72
2023/10/19 05:53:41;;;;;;;0.00;0.00;;;;;;;;;;4980239;28;20030;-73
2023/10/19 05:56:07;;;;;;;0.00;0.00;;;;;;;;;;4976692;28;20038;-72
2023/10/19 05:58:33;;;;;;;0.00;0.00;;;;;;;;;;4982000;28;20553;-73
2023/10/19 06:00:59;;;;;;;0.00;0.00;;;;;;;;;;4977056;28;20107;-71
2023/10/19 06:03:26;;;;;;;0.00;0.00;;;;;;;;;;4977907;28;20041;-72
2023/10/19 06:05:56;;;;;;;0.00;0.00;;;;;;;;;;4978684;28;20046;-72
2023/10/19 06:08:22;;;;;;;0.00;0.00;;;;;;;;;;4971398;28;20754;-71
2023/10/19 06:10:52;;;;;;;0.00;0.00;;;;;;;;;;4982706;28;20490;-72
2023/10/19 06:13:17;;;;;;;0.00;0.00;;;;;;;;;;4978323;28;20042;-73
2023/10/19 06:15:43;;;;;;;0.00;0.00;;;;;;;;;;4993528;28;20469;-74
2023/10/19 06:18:10;;;;;;;0.00;0.00;;;;;;;;;;4974849;28;20104;-74
2023/10/19 06:20:36;;;;;;;0.00;0.00;;;;;;;;;;4982056;28;20656;-75
2023/10/19 06:23:06;;;;;;;0.00;0.00;;;;;;;;;;4976548;28;20046;-76
2023/10/19 06:25:32;;;;;;;0.00;0.00;;;;;;;;;;4988827;28;20104;-76
2023/10/19 06:27:59;;;;;;;0.00;0.00;;;;;;;;;;4986994;28;20162;-71
2023/10/19 06:30:26;;;;;;;0.00;0.00;;;;;;;;;;4979394;28;20088;-71
2023/10/19 06:32:53;;;;;;;0.00;0.00;;;;;;;;;;4985846;28;20489;-71
2023/10/19 06:35:20;;;;;;;0.00;0.00;;;;;;;;;;4981253;28;20147;-71
2023/10/19 06:37:46;;;;;;;0.00;0.00;;;;;;;;;;4978597;28;20567;-71
2023/10/19 06:40:14;;;;;;;0.00;0.00;;;;;;;;;;4975749;28;20038;-70
2023/10/19 06:42:40;;;;;;;0.00;0.00;;;;;;;;;;4973315;28;20053;-71
2023/10/19 06:45:07;;;;;;;0.00;0.00;;;;;;;;;;4978335;28;20045;-71
2023/10/19 06:47:37;;;;;;;0.00;0.00;;;;;;;;;;4976800;28;20042;-71
2023/10/19 06:50:05;;;;;;;0.00;0.00;;;;;;;;;;4976029;28;20132;-71
2023/10/19 06:52:32;;;;;;;0.00;0.00;;;;;;;;;;4983583;28;20256;-71
2023/10/19 06:54:58;;;;;;;0.00;0.00;;;;;;;;;;4974660;28;20073;-71
2023/10/19 06:57:24;;;;;;;0.00;0.00;;;;;;;;;;4971833;28;20125;-71
2023/10/19 06:59:52;;;;;;;0.00;0.00;;;;;;;;;;4975248;28;20104;-71
2023/10/19 07:02:20;;;;;;;0.00;0.00;;;;;;;;;;4973436;28;20585;-71
2023/10/19 07:04:47;;;;;;;0.00;0.00;;;;;;;;;;4978126;28;20418;-71
2023/10/19 07:07:16;;;;;;;0.00;0.00;;;;;;;;;;4976777;28;20231;-71
2023/10/19 07:09:42;;;;;;;0.00;0.00;;;;;;;;;;4977866;28;20483;-71
2023/10/19 07:12:08;;;;;;;0.00;0.00;;;;;;;;;;4976039;28;20072;-71
2023/10/19 07:14:34;;;;;;;0.00;0.00;;;;;;;;;;4991994;28;20129;-71
2023/10/19 07:17:00;;;;;;;0.00;0.00;;;;;;;;;;4985644;28;20108;-71
2023/10/19 07:19:26;;;;;;;0.00;0.00;;;;;;;;;;4975844;28;20042;-71
2023/10/19 07:21:57;;;;;;;0.00;0.00;;;;;;;;;;4977631;28;20337;-71
2023/10/19 07:24:26;;;;;;;0.00;0.00;;;;;;;;;;4972659;28;20133;-71
2023/10/19 07:27:04;;;;;;;0.00;0.00;;;;;;;;;;4977156;28;20050;-71
2023/10/19 07:29:31;;;;;;;0.00;0.00;;;;;;;;;;4980061;28;20038;-71
2023/10/19 07:31:58;;;;;;;0.00;0.00;;;;;;;;;;4974488;28;20038;-71
2023/10/19 07:34:28;;;;;;;0.00;0.00;;;;;;;;;;4974051;28;20047;-71
2023/10/19 07:36:55;;;;;;;0.00;0.00;;;;;;;;;;4978138;28;20570;-73
2023/10/19 07:39:22;;;;;;;0.00;0.00;;;;;;;;;;4976055;28;20076;-75
2023/10/19 07:41:48;;;;;;;0.00;0.00;;;;;;;;;;4975352;28;20039;-73
2023/10/19 07:44:14;;;;;;;0.00;0.00;;;;;;;;;;4979467;28;20038;-73
2023/10/19 07:46:40;;;;;;;0.00;0.00;;;;;;;;;;4979798;28;20418;-74
2023/10/19 07:49:07;;;;;;;0.00;0.00;;;;;;;;;;4981065;28;20035;-74
2023/10/19 07:51:34;;;;;;;0.00;0.00;;;;;;;;;;4977945;28;20035;-73
2023/10/19 07:54:00;;;;;;;0.00;0.00;;;;;;;;;;4981918;28;20035;-74
2023/10/19 07:56:26;;;;;;;0.00;0.00;;;;;;;;;;4979639;28;20062;-74
2023/10/19 07:58:52;;;;;;;0.00;0.00;;;;;;;;;;4981109;28;20161;-72
2023/10/19 08:01:18;;;;;;;0.00;0.00;;;;;;;;;;4979176;28;20057;-75
2023/10/19 08:03:44;;;;;;;0.00;0.00;;;;;;;;;;4978654;28;20534;-75
2023/10/19 08:06:10;;;;;;;0.00;0.00;;;;;;;;;;4974387;28;20153;-74
2023/10/19 08:08:36;;;;;;;0.00;0.00;;;;;;;;;;4979646;28;20763;-75
2023/10/19 08:11:02;;;;;;;0.00;0.00;;;;;;;;;;4980972;28;20187;-75
2023/10/19 08:13:28;;;;;;;0.00;0.00;;;;;;;;;;4978757;28;20050;-75
2023/10/19 08:15:55;;;;;;;0.00;0.00;;;;;;;;;;4984676;28;20034;-75
2023/10/19 08:18:21;;;;;;;0.00;0.00;;;;;;;;;;4980252;28;20074;-74
2023/10/19 08:20:48;;;;;;;0.00;0.00;;;;;;;;;;4981799;28;20074;-74
2023/10/19 08:23:16;;;;;;;0.00;0.00;;;;;;;;;;4990476;28;20076;-74
2023/10/19 08:25:44;;;;;;;0.00;0.00;;;;;;;;;;4984229;28;20486;-74
2023/10/19 08:28:11;;;;;;;0.00;0.00;;;;;;;;;;4980347;28;20038;-75
2023/10/19 08:30:37;;;;;;;0.00;0.00;;;;;;;;;;4976431;28;20038;-74
2023/10/19 08:33:03;;;;;;;0.00;0.00;;;;;;;;;;4981886;28;20069;-73
2023/10/19 08:35:30;;;;;;;0.00;0.00;;;;;;;;;;4991975;28;20061;-72
2023/10/19 08:37:57;;;;;;;0.00;0.00;;;;;;;;;;4978686;28;20038;-72
2023/10/19 08:40:25;;;;;;;0.00;0.00;;;;;;;;;;4979146;28;20851;-75
2023/10/19 08:42:51;;;;;;;0.00;0.00;;;;;;;;;;4980211;28;20046;-73
2023/10/19 08:45:17;;;;;;;0.00;0.00;;;;;;;;;;4980258;28;20049;-73
2023/10/19 08:47:54;;;;;;;0.00;0.00;;;;;;;;;;4979321;28;20042;-71
2023/10/19 08:50:24;;;;;;;0.00;0.00;;;;;;;;;;4979245;28;20863;-71
2023/10/19 08:52:52;;;;;;;0.00;0.00;;;;;;;;;;4979880;28;20038;-72
2023/10/19 08:55:19;;;;;;;0.00;0.00;;;;;;;;;;4978632;28;20049;-72
2023/10/19 08:57:45;;;;;;;0.00;0.00;;;;;;;;;;4980408;28;20039;-72
2023/10/19 09:00:12;;;;;;;0.00;0.00;;;;;;;;;;4979229;28;20053;-73
2023/10/19 09:02:38;;;;;;;0.00;0.00;;;;;;;;;;4978427;28;20494;-72
2023/10/19 09:05:07;;;;;;;0.00;0.00;;;;;;;;;;4977457;28;20509;-72
2023/10/19 09:07:34;;;;;;;0.00;0.00;;;;;;;;;;4978159;28;20077;-72
2023/10/19 09:10:01;;;;;;;0.00;0.00;;;;;;;;;;4977510;28;20034;-72
2023/10/19 09:12:27;;;;;;;0.00;0.00;;;;;;;;;;4976006;28;20038;-73
2023/10/19 09:14:53;;;;;;;0.00;0.00;;;;;;;;;;4979985;28;20254;-73
2023/10/19 09:17:28;;;;;;;0.00;0.00;;;;;;;;;;4977951;28;20141;-72
2023/10/19 09:19:56;;;;;;;0.00;0.00;;;;;;;;;;4978685;28;20989;-73
2023/10/19 09:22:25;;;;;;;0.00;0.00;;;;;;;;;;4976781;28;20129;-72
2023/10/19 09:24:55;;;;;;;0.00;0.00;;;;;;;;;;4976158;28;20433;-73
2023/10/19 09:27:21;;;;;;;0.00;0.00;;;;;;;;;;4973640;28;20042;-73
2023/10/19 09:29:48;;;;;;;0.00;0.00;;;;;;;;;;4970943;28;20081;-73
2023/10/19 09:32:14;;;;;;;0.00;0.00;;;;;;;;;;4974987;28;20469;-73
2023/10/19 09:34:43;;;;;;;0.00;0.00;;;;;;;;;;4976714;28;20862;-73
2023/10/19 09:37:10;;;;;;;0.00;0.00;;;;;;;;;;4977665;28;20041;-73
2023/10/19 09:39:36;;;;;;;0.00;0.00;;;;;;;;;;4984947;28;20041;-74
2023/10/19 09:42:10;;;;;;;0.00;0.00;;;;;;;;;;4977690;28;20046;-73
2023/10/19 09:44:41;;;;;;;0.00;0.00;;;;;;;;;;4987079;28;20038;-74
2023/10/19 09:47:15;;;;;;;0.00;0.00;;;;;;;;;;4976024;28;20130;-74
2023/10/19 09:49:42;;;;;;;0.00;0.00;;;;;;;;;;4993258;28;20033;-74
2023/10/19 09:52:09;;;;;;;0.00;0.00;;;;;;;;;;4977257;28;20038;-73
2023/10/19 09:54:47;;;;;;;0.00;0.00;;;;;;;;;;4978766;28;20873;-73
2023/10/19 09:57:16;;;;;;;0.00;0.00;;;;;;;;;;4984369;28;20041;-73
2023/10/19 09:59:44;;;;;;;0.00;0.00;;;;;;;;;;4978722;28;20072;-73
2023/10/19 10:02:15;;;;;;;0.00;0.00;;;;;;;;;;4977563;28;20498;-73
2023/10/19 10:04:41;;;;;;;0.00;0.00;;;;;;;;;;4977451;28;20061;-73
2023/10/19 10:07:07;;;;;;;0.00;0.00;;;;;;;;;;4978566;28;20031;-74
2023/10/19 10:09:44;;;;;;;0.00;0.00;;;;;;;;;;4997589;28;20461;-74
2023/10/19 10:12:21;;;;;;;0.00;0.00;;;;;;;;;;4981770;28;20132;-74
2023/10/19 10:15:02;;;;;;;0.00;0.00;;;;;;;;;;4975262;28;20073;-73
2023/10/19 10:17:28;;;;;;;0.00;0.00;;;;;;;;;;4976153;28;20537;-74
2023/10/19 10:20:15;;;;;;;0.00;0.00;;;;;;;;;;4979207;28;20065;-74
2023/10/19 10:22:41;;;;;;;0.00;0.00;;;;;;;;;;4983584;28;20048;-69
2023/10/19 10:25:07;;;;;;;0.00;0.00;;;;;;;;;;4975822;28;20042;-74
2023/10/19 10:27:36;;;;;;;0.00;0.00;;;;;;;;;;4976562;28;20094;-74
2023/10/19 10:30:06;;;;;;;0.00;0.00;;;;;;;;;;4986677;28;20684;-74
2023/10/19 10:32:59;;;;;;;0.00;0.00;;;;;;;;;;4976083;28;20034;-75
2023/10/19 10:35:51;;;;;;;0.00;0.00;;;;;;;;;;4971041;28;20045;-73
2023/10/19 10:38:17;;;;;;;0.00;0.00;;;;;;;;;;4972981;28;20490;-73
2023/10/19 10:40:47;;;;;;;0.00;0.00;;;;;;;;;;4979887;28;20041;-73
2023/10/19 10:43:13;;;;;;;0.00;0.00;;;;;;;;;;4975647;28;20550;-73
2023/10/19 10:45:39;;;;;;;0.00;0.00;;;;;;;;;;4977458;28;20046;-74
2023/10/19 10:48:12;;;;;;;0.00;0.00;;;;;;;;;;4973328;28;20034;-73
2023/10/19 10:50:39;;;;;;;;;;;;;;;;;;4976568;28;20130;-74
2023/10/19 10:53:05;;;;;;;0.00;0.00;;;;;;;;;;4977002;28;19925;-74
2023/10/19 10:55:32;;;;;;;0.00;0.00;;;;;;;;;;4991732;28;20042;-73
2023/10/19 10:57:59;;;;;;;0.00;0.00;;;;;;;;;;4975711;28;20034;-70
2023/10/19 11:00:28;;;;;;;0.00;0.00;;;;;;;;;;4974639;28;20062;-74
2023/10/19 11:03:07;;;;;;;0.00;0.00;;;;;;;;;;4974526;28;20073;-73
2023/10/19 11:05:35;;;;;;;0.00;0.00;;;;;;;;;;4981696;28;20096;-74
2023/10/19 11:08:04;;;;;;;0.00;0.00;;;;;;;;;;4973422;28;20042;-75
2023/10/19 11:10:30;;;;;;;0.00;0.00;;;;;;;;;;5010552;28;20092;-73
2023/10/19 11:13:08;;;;;;;0.00;0.00;;;;;;;;;;4996554;28;20045;-74
2023/10/19 11:15:36;;;;;;;0.00;0.00;;;;;;;;;;4978963;28;20031;-73
2023/10/19 11:18:03;;;;;;;0.00;0.00;;;;;;;;;;4969618;28;20034;-72
2023/10/19 11:20:29;;;;;;;0.00;0.00;;;;;;;;;;4977921;28;20506;-73
2023/10/19 11:23:00;;;;;;;0.00;0.00;;;;;;;;;;4974609;28;20529;-73
2023/10/19 11:25:30;;;;;;;0.00;0.00;;;;;;;;;;4974932;28;20034;-74
2023/10/19 11:28:00;;;;;;;0.00;0.00;;;;;;;;;;4976893;28;20051;-74
2023/10/19 11:30:27;;;;;;;0.00;0.00;;;;;;;;;;4976417;28;20350;-73
2023/10/19 11:32:56;;;;;;;0.00;0.00;;;;;;;;;;4975797;28;20104;-74
2023/10/19 11:35:23;;;;;;;0.00;0.00;;;;;;;;;;4976019;28;20031;-74
2023/10/19 11:37:53;;;;;;;0.00;0.00;;;;;;;;;;4978984;28;20143;-73
2023/10/19 11:40:20;;;;;;;0.00;0.00;;;;;;;;;;4979696;28;20057;-73
2023/10/19 11:42:46;;;;;;;0.00;0.00;;;;;;;;;;4980221;28;20447;-73
2023/10/19 11:45:12;;;;;;;0.00;0.00;;;;;;;;;;4977422;28;20737;-73
2023/10/19 11:47:39;;;;;;;0.00;0.00;;;;;;;;;;4989092;28;20496;-73
2023/10/19 11:50:05;;;;;;;0.00;0.00;;;;;;;;;;4981443;28;20486;-73
2023/10/19 11:52:32;;;;;;;0.00;0.00;;;;;;;;;;4979260;28;20060;-73
2023/10/19 11:54:58;;;;;;;0.00;0.00;;;;;;;;;;4979298;28;20062;-73
2023/10/19 11:57:25;;;;;;;0.00;0.00;;;;;;;;;;4974981;28;20125;-73
2023/10/19 11:59:54;;;;;;;0.00;0.00;;;;;;;;;;4974850;28;20045;-73
2023/10/19 12:02:20;;;;;;;0.00;0.00;;;;;;;;;;4976901;28;20038;-73
2023/10/19 12:04:46;;;;;;;0.00;0.00;;;;;;;;;;4975269;28;20088;-73
2023/10/19 12:07:12;;;;;;;0.00;0.00;;;;;;;;;;4981663;28;20034;-72
2023/10/19 12:09:41;;;;;;;0.00;0.00;;;;;;;;;;4982523;28;20038;-73
2023/10/19 12:12:08;;;;;;;0.00;0.00;;;;;;;;;;4977810;28;20045;-72
2023/10/19 12:14:35;;;;;;;0.00;0.00;;;;;;;;;;4981774;28;20045;-73
2023/10/19 12:17:02;;;;;;;0.00;0.00;;;;;;;;;;4977820;28;20534;-73
2023/10/19 12:19:29;;;;;;;0.00;0.00;;;;;;;;;;4984962;28;20027;-73
2023/10/19 12:21:56;;;;;;;0.00;0.00;;;;;;;;;;4976333;28;20150;-73
2023/10/19 12:24:23;;;;;;;0.00;0.00;;;;;;;;;;4975315;28;20426;-74
2023/10/19 12:26:49;;;;;;;0.00;0.00;;;;;;;;;;4979767;28;20482;-73
2023/10/19 12:29:17;;;;;;;0.00;0.00;;;;;;;;;;4973308;28;20070;-73
2023/10/19 12:31:43;;;;;;;0.00;0.00;;;;;;;;;;4981210;28;20421;-73
2023/10/19 12:34:11;;;;;;;0.00;0.00;;;;;;;;;;4983265;28;20038;-73
2023/10/19 12:36:37;;;;;;;0.00;0.00;;;;;;;;;;4995307;28;20201;-73
2023/10/19 12:39:07;;;;;;;0.00;0.00;;;;;;;;;;4979011;28;20381;-73
2023/10/19 12:41:33;;;;;;;0.00;0.00;;;;;;;;;;4978029;28;20049;-73
2023/10/19 12:44:07;;;;;;;0.00;0.00;;;;;;;;;;4980043;28;20046;-73
2023/10/19 12:46:36;;;;;;;0.00;0.00;;;;;;;;;;4977215;28;20046;-73
2023/10/19 12:49:02;;;;;;;0.00;0.00;;;;;;;;;;4977462;28;20034;-73
2023/10/19 12:51:29;;;;;;;0.00;0.00;;;;;;;;;;4979019;28;20826;-73
2023/10/19 12:53:55;;;;;;;0.00;0.00;;;;;;;;;;4978473;28;20042;-73
2023/10/19 12:56:28;;;;;;;0.00;0.00;;;;;;;;;;4977262;28;20038;-73
2023/10/19 12:58:54;;;;;;;0.00;0.00;;;;;;;;;;4978963;28;20916;-73
2023/10/19 13:01:21;;;;;;;0.00;0.00;;;;;;;;;;4979224;28;20046;-73
2023/10/19 13:03:49;;;;;;;0.00;0.00;;;;;;;;;;4983717;28;20132;-73
2023/10/19 13:06:15;;;;;;;0.00;0.00;;;;;;;;;;4979269;28;20031;-72
2023/10/19 13:08:41;;;;;;;0.00;0.00;;;;;;;;;;4977306;28;20045;-73
2023/10/19 13:11:07;;;;;;;0.00;0.00;;;;;;;;;;4979760;28;20034;-72
2023/10/19 13:13:36;;;;;;;0.00;0.00;;;;;;;;;;4979545;28;20026;-72
2023/10/19 13:16:11;;;;;;;0.00;0.00;;;;;;;;;;4978847;28;20467;-72
2023/10/19 13:18:40;;;;;;;0.00;0.00;;;;;;;;;;4985796;28;20034;-72
2023/10/19 13:21:06;;;;;;;0.00;0.00;;;;;;;;;;4978029;28;20066;-72
2023/10/19 13:23:35;;;;;;;0.00;0.00;;;;;;;;;;4978858;28;20648;-72
2023/10/19 13:28:33;;;;;;;0.00;0.00;;;;;;;;;;4977460;28;20042;-72
2023/10/19 13:30:59;;;;;;;0.00;0.00;;;;;;;;;;4980371;28;20490;-72
2023/10/19 13:33:25;;;;;;;0.00;0.00;;;;;;;;;;4981115;28;20875;-72
2023/10/19 13:35:51;;;;;;;0.00;0.00;;;;;;;;;;4981058;28;20042;-72
2023/10/19 13:38:19;;;;;;;0.00;0.00;;;;;;;;;;4977576;28;20074;-72
2023/10/19 13:40:45;;;;;;;0.00;0.00;;;;;;;;;;4978141;28;20442;-72
2023/10/19 13:43:16;;;;;;;0.00;0.00;;;;;;;;;;4976801;28;20121;-72
2023/10/19 13:45:45;;;;;;;0.00;0.00;;;;;;;;;;4980801;28;20038;-73
2023/10/19 13:48:12;;;;;;;0.00;0.00;;;;;;;;;;4978271;28;20517;-72
2023/10/19 13:50:48;;;;;;;0.00;0.00;;;;;;;;;;4978733;28;20245;-73
2023/10/19 13:53:15;;;;;;;0.00;0.00;;;;;;;;;;4978300;28;20077;-73
2023/10/19 13:55:41;;;;;;;0.00;0.00;;;;;;;;;;4979555;28;20071;-73
2023/10/19 13:58:07;;;;;;;0.00;0.00;;;;;;;;;;4978024;28;20039;-73
2023/10/19 14:03:00;;;;;;;0.00;0.00;;;;;;;;;;4979469;28;20478;-72
2023/10/19 14:05:27;;;;;;;0.00;0.00;;;;;;;;;;4986722;28;20183;-73
2023/10/19 14:07:53;;;;;;;0.00;0.00;;;;;;;;;;4979459;28;20038;-72
2023/10/19 14:10:19;;;;;;;0.00;0.00;;;;;;;;;;4978484;28;20034;-73
2023/10/19 14:12:46;;;;;;;0.00;0.00;;;;;;;;;;4977190;28;20042;-72
2023/10/19 14:15:12;;;;;;;0.00;0.00;;;;;;;;;;4975292;28;20030;-71
2023/10/19 14:17:38;;;;;;;0.00;0.00;;;;;;;;;;4976355;28;20030;-71
2023/10/19 14:20:05;;;;;;;0.00;0.00;;;;;;;;;;4975314;28;20365;-71
2023/10/19 14:22:34;;;;;;;0.00;0.00;;;;;;;;;;4974111;28;20556;-70
2023/10/19 14:25:00;;;;;;;0.00;0.00;;;;;;;;;;4976579;28;20038;-70
2023/10/19 14:27:26;;;;;;;0.00;0.00;;;;;;;;;;4981006;28;20042;-71
2023/10/19 14:29:52;;;;;;;0.00;0.00;;;;;;;;;;4973525;28;20120;-70
2023/10/19 14:32:18;;;;;;;0.00;0.00;;;;;;;;;;4971544;28;20045;-71
2023/10/19 14:34:44;;;;;;;0.00;0.00;;;;;;;;;;4980022;28;20221;-71
2023/10/19 14:37:10;;;;;;;0.00;0.00;;;;;;;;;;4978220;28;20235;-71
2023/10/19 14:39:36;;;;;;;0.00;0.00;;;;;;;;;;4979031;28;20162;-71
2023/10/19 14:42:02;;;;;;;0.00;0.00;;;;;;;;;;4985848;28;20038;-70
2023/10/19 14:44:28;;;;;;;0.00;0.00;;;;;;;;;;4986556;28;20165;-71
2023/10/19 14:46:54;;;;;;;0.00;0.00;;;;;;;;;;4979489;28;20045;-71
2023/10/19 14:49:20;;;;;;;0.00;0.00;;;;;;;;;;4977259;28;20370;-71
2023/10/19 14:51:46;;;;;;;0.00;0.00;;;;;;;;;;4975200;28;20053;-71
2023/10/19 14:54:13;;;;;;;0.00;0.00;;;;;;;;;;4975523;28;20479;-71
2023/10/19 14:56:39;;;;;;;0.00;0.00;;;;;;;;;;4975176;28;20031;-71
2023/10/19 14:59:05;;;;;;;0.00;0.00;;;;;;;;;;4973065;28;20050;-71
2023/10/19 15:01:31;;;;;;;0.00;0.00;;;;;;;;;;4971000;28;20034;-71
2023/10/19 15:03:57;;;;;;;0.00;0.00;;;;;;;;;;4978563;28;20121;-71
2023/10/19 15:06:23;;;;;;;0.00;0.00;;;;;;;;;;4977341;28;20092;-71
2023/10/19 15:08:50;;;;;;;0.00;0.00;;;;;;;;;;4977762;28;20118;-71